createdAt,value
2019-04-14T00:00:07.603Z,90.70
2019-04-14T00:02:42.502Z,90.70
2019-04-14T00:05:21.082Z,90.60
2019-04-14T00:07:53.796Z,90.50
2019-04-14T00:10:29.676Z,90.60
2019-04-14T00:13:04.567Z,90.50
2019-04-14T00:15:45.050Z,90.40
2019-04-14T00:18:18.597Z,89.80
2019-04-14T00:20:57.711Z,89.60
2019-04-14T00:23:28.267Z,90.20
2019-04-14T00:26:27.383Z,90.00
2019-04-14T00:29:00.397Z,88.30
2019-04-14T00:31:34.819Z,87.10
2019-04-14T00:34:15.892Z,87.60
2019-04-14T00:37:07.820Z,89.90
2019-04-14T00:39:41.997Z,89.10
2019-04-14T00:42:36.465Z,88.00
2019-04-14T00:45:36.994Z,87.20
2019-04-14T00:48:20.671Z,87.60
2019-04-14T00:50:53.970Z,87.00
2019-04-14T00:53:29.746Z,88.30
2019-04-14T00:56:02.086Z,89.70
2019-04-14T00:58:34.311Z,89.20
2019-04-14T01:01:06.840Z,89.00
2019-04-14T01:03:39.373Z,90.70
2019-04-14T01:06:14.207Z,91.20
2019-04-14T01:08:48.888Z,91.40
2019-04-14T01:11:20.369Z,91.60
2019-04-14T01:13:57.156Z,91.90
2019-04-14T01:16:30.404Z,91.20
2019-04-14T01:19:03.274Z,91.30
2019-04-14T01:21:43.619Z,91.50
2019-04-14T01:24:18.563Z,91.70
2019-04-14T01:26:55.003Z,91.70
2019-04-14T01:29:38.455Z,91.60
2019-04-14T01:32:19.651Z,91.50
2019-04-14T01:34:53.662Z,91.20
2019-04-14T01:37:35.445Z,90.90
2019-04-14T01:40:16.355Z,90.50
2019-04-14T01:42:48.493Z,90.30
2019-04-14T01:45:21.668Z,90.50
2019-04-14T01:47:59.895Z,90.50
2019-04-14T01:50:36.568Z,91.00
2019-04-14T01:53:18.255Z,91.10
2019-04-14T01:56:10.408Z,90.80
2019-04-14T01:58:44.671Z,91.40
2019-04-14T02:01:21.989Z,91.80
2019-04-14T02:03:58.489Z,91.90
2019-04-14T02:06:34.001Z,92.00
2019-04-14T02:09:11.914Z,91.80
2019-04-14T02:11:49.385Z,91.40
2019-04-14T02:14:26.154Z,91.40
2019-04-14T02:17:09.479Z,91.20
2019-04-14T02:19:43.896Z,91.60
2019-04-14T02:22:18.282Z,91.90
2019-04-14T02:24:52.816Z,92.00
2019-04-14T02:27:25.358Z,91.90
2019-04-14T02:30:06.495Z,91.80
2019-04-14T02:33:17.194Z,92.30
2019-04-14T02:35:57.729Z,92.10
2019-04-14T02:38:37.268Z,92.20
2019-04-14T02:41:05.836Z,92.30
2019-04-14T02:43:37.581Z,92.30
2019-04-14T02:48:55.503Z,92.50
2019-04-14T02:56:52.516Z,92.50
2019-04-14T02:59:28.899Z,92.50
2019-04-14T03:04:54.772Z,92.70
2019-04-14T03:07:23.163Z,92.70
2019-04-14T03:10:03.267Z,92.80
2019-04-14T03:15:20.077Z,92.60
2019-04-14T03:18:16.494Z,92.50
2019-04-14T03:20:39.525Z,92.70
2019-04-14T03:23:33.139Z,92.70
2019-04-14T03:26:18.465Z,92.90
2019-04-14T03:29:08.167Z,92.90
2019-04-14T03:34:37.152Z,93.30
2019-04-14T03:37:31.955Z,92.90
2019-04-14T03:39:46.245Z,93.00
2019-04-14T03:42:28.703Z,93.00
2019-04-14T03:44:56.514Z,92.70
2019-04-14T03:50:07.103Z,92.60
2019-04-14T03:53:05.933Z,92.20
2019-04-14T03:55:16.248Z,92.20
2019-04-14T03:57:46.297Z,92.30
2019-04-14T04:00:22.661Z,92.30
2019-04-14T04:02:57.648Z,92.30
2019-04-14T04:05:34.506Z,92.80
2019-04-14T04:08:11.402Z,92.60
2019-04-14T04:10:46.430Z,92.20
2019-04-14T04:13:21.576Z,92.10
2019-04-14T04:16:00.469Z,91.70
2019-04-14T04:18:50.906Z,92.00
2019-04-14T04:21:26.971Z,92.10
2019-04-14T04:24:13.197Z,92.70
2019-04-14T04:26:51.778Z,92.80
2019-04-14T04:29:33.018Z,92.40
2019-04-14T04:32:14.326Z,93.00
2019-04-14T04:34:56.324Z,92.70
2019-04-14T04:37:30.329Z,93.10
2019-04-14T04:40:07.134Z,92.90
2019-04-14T04:42:39.502Z,92.90
2019-04-14T04:45:11.282Z,92.20
2019-04-14T04:47:44.797Z,92.10
2019-04-14T04:50:19.222Z,92.10
2019-04-14T04:52:51.785Z,91.90
2019-04-14T04:55:26.600Z,91.90
2019-04-14T04:58:03.995Z,92.20
2019-04-14T05:00:48.564Z,92.30
2019-04-14T05:03:23.231Z,92.20
2019-04-14T05:06:23.263Z,92.10
2019-04-14T05:09:12.403Z,92.30
2019-04-14T05:12:09.046Z,92.20
2019-04-14T05:15:01.244Z,91.70
2019-04-14T05:17:47.393Z,91.90
2019-04-14T05:20:31.280Z,91.80
2019-04-14T05:23:05.816Z,92.00
2019-04-14T05:25:43.094Z,92.10
2019-04-14T05:28:15.478Z,91.80
2019-04-14T05:30:48.425Z,92.20
2019-04-14T05:33:29.338Z,91.90
2019-04-14T05:36:10.705Z,92.00
2019-04-14T05:38:51.747Z,92.20
2019-04-14T05:41:35.410Z,92.10
2019-04-14T05:44:14.324Z,92.70
2019-04-14T05:46:51.358Z,92.90
2019-04-14T05:49:34.861Z,92.90
2019-04-14T05:52:03.345Z,92.70
2019-04-14T05:54:49.348Z,92.50
2019-04-14T05:57:28.398Z,92.50
2019-04-14T06:00:08.101Z,92.80
2019-04-14T06:02:40.024Z,92.40
2019-04-14T06:05:14.546Z,92.60
2019-04-14T06:07:47.650Z,92.50
2019-04-14T06:10:25.342Z,92.20
2019-04-14T06:12:57.501Z,92.10
2019-04-14T06:15:39.343Z,92.60
2019-04-14T06:18:19.350Z,92.10
2019-04-14T06:20:57.338Z,92.00
2019-04-14T06:23:42.335Z,92.50
2019-04-14T06:26:19.729Z,92.50
2019-04-14T06:28:54.229Z,93.10
2019-04-14T06:31:30.348Z,92.90
2019-04-14T06:34:05.949Z,93.10
2019-04-14T06:36:48.977Z,93.00
2019-04-14T06:39:38.340Z,92.60
2019-04-14T06:42:14.800Z,92.80
2019-04-14T06:44:48.619Z,92.60
2019-04-14T06:47:30.096Z,92.30
2019-04-14T06:50:11.063Z,92.40
2019-04-14T06:52:45.894Z,92.50
2019-04-14T06:55:18.880Z,92.70
2019-04-14T06:57:51.256Z,92.80
2019-04-14T07:00:30.356Z,92.60
2019-04-14T07:03:10.366Z,92.20
2019-04-14T07:05:51.195Z,92.30
2019-04-14T07:08:26.647Z,92.30
2019-04-14T07:11:06.070Z,92.80
2019-04-14T07:13:47.762Z,92.20
2019-04-14T07:16:16.666Z,92.40
2019-04-14T07:18:50.168Z,92.70
2019-04-14T07:21:28.981Z,92.40
2019-04-14T07:24:09.351Z,91.90
2019-04-14T07:26:52.738Z,92.00
2019-04-14T07:29:28.373Z,91.80
2019-04-14T07:32:14.094Z,92.10
2019-04-14T07:34:48.947Z,92.00
2019-04-14T07:37:42.360Z,92.00
2019-04-14T07:40:35.737Z,91.90
2019-04-14T07:43:10.494Z,92.00
2019-04-14T07:45:51.875Z,92.10
2019-04-14T07:48:33.555Z,91.90
2019-04-14T07:51:17.377Z,91.40
2019-04-14T07:53:56.538Z,91.40
2019-04-14T07:56:52.375Z,92.10
2019-04-14T07:59:49.373Z,92.00
2019-04-14T08:02:27.360Z,92.10
2019-04-14T08:05:05.201Z,92.10
2019-04-14T08:07:42.370Z,92.00
2019-04-14T08:10:18.255Z,91.90
2019-04-14T08:12:55.838Z,91.60
2019-04-14T08:15:33.236Z,91.40
2019-04-14T08:18:11.321Z,91.10
2019-04-14T08:20:49.034Z,91.30
2019-04-14T08:23:28.379Z,91.00
2019-04-14T08:25:59.812Z,90.70
2019-04-14T08:28:35.250Z,90.80
2019-04-14T08:31:07.232Z,90.80
2019-04-14T08:33:44.376Z,90.10
2019-04-14T08:36:17.999Z,89.70
2019-04-14T08:38:56.419Z,89.60
2019-04-14T08:41:34.383Z,88.20
2019-04-14T08:44:15.277Z,87.00
2019-04-14T08:46:53.178Z,87.90
2019-04-14T08:49:42.393Z,88.00
2019-04-14T08:52:36.387Z,89.90
2019-04-14T08:55:11.060Z,88.20
2019-04-14T08:57:49.274Z,87.40
2019-04-14T09:00:27.377Z,87.30
2019-04-14T09:03:11.652Z,86.20
2019-04-14T09:06:02.319Z,85.80
2019-04-14T09:08:54.672Z,86.00
2019-04-14T09:11:38.715Z,86.40
2019-04-14T09:14:15.995Z,86.50
2019-04-14T09:16:57.424Z,86.30
2019-04-14T09:19:31.176Z,87.00
2019-04-14T09:22:07.257Z,86.50
2019-04-14T09:24:40.219Z,87.70
2019-04-14T09:27:15.669Z,87.30
2019-04-14T09:29:55.845Z,87.60
2019-04-14T09:32:28.715Z,86.30
2019-04-14T09:35:03.954Z,86.10
2019-04-14T09:37:36.106Z,87.40
2019-04-14T09:40:14.124Z,88.60
2019-04-14T09:42:57.656Z,87.70
2019-04-14T09:45:28.273Z,87.40
2019-04-14T09:48:08.407Z,88.60
2019-04-14T09:50:47.774Z,87.20
2019-04-14T09:53:19.942Z,86.60
2019-04-14T09:55:55.268Z,86.40
2019-04-14T09:58:31.852Z,86.50
2019-04-14T10:01:09.100Z,86.50
2019-04-14T10:03:51.412Z,86.90
2019-04-14T10:06:31.402Z,87.00
2019-04-14T10:09:11.400Z,86.50
2019-04-14T10:11:48.885Z,88.40
2019-04-14T10:14:28.424Z,87.10
2019-04-14T10:17:01.556Z,86.80
2019-04-14T10:19:40.411Z,88.40
2019-04-14T10:22:16.418Z,87.30
2019-04-14T10:24:52.899Z,87.20
2019-04-14T10:27:32.424Z,88.30
2019-04-14T10:30:03.594Z,88.40
2019-04-14T10:32:35.851Z,89.40
2019-04-14T10:35:17.412Z,88.90
2019-04-14T10:37:52.792Z,87.30
2019-04-14T10:40:32.839Z,87.30
2019-04-14T10:43:10.014Z,88.80
2019-04-14T10:45:43.302Z,89.80
2019-04-14T10:48:24.414Z,87.70
2019-04-14T10:50:55.534Z,88.80
2019-04-14T10:53:35.421Z,88.50
2019-04-14T10:56:15.847Z,90.30
2019-04-14T10:58:51.595Z,89.90
2019-04-14T11:01:22.316Z,88.80
2019-04-14T11:03:57.676Z,89.00
2019-04-14T11:06:49.705Z,88.70
2019-04-14T11:09:21.046Z,88.60
2019-04-14T11:11:56.288Z,90.00
2019-04-14T11:14:30.994Z,90.00
2019-04-14T11:17:03.900Z,89.70
2019-04-14T11:19:42.304Z,89.10
2019-04-14T11:22:17.942Z,89.00
2019-04-14T11:24:51.852Z,90.70
2019-04-14T11:27:35.423Z,90.60
2019-04-14T11:30:11.546Z,91.00
2019-04-14T11:32:59.801Z,90.90
2019-04-14T11:35:51.420Z,90.30
2019-04-14T11:38:41.200Z,90.60
2019-04-14T11:41:24.838Z,90.60
2019-04-14T11:44:06.145Z,90.90
2019-04-14T11:46:39.104Z,91.60
2019-04-14T11:49:15.800Z,91.00
2019-04-14T11:51:55.089Z,90.30
2019-04-14T11:54:20.936Z,91.50
2019-04-14T11:56:56.905Z,91.10
2019-04-14T11:59:32.430Z,92.00
2019-04-14T12:02:08.284Z,91.40
2019-04-14T12:04:48.034Z,91.20
2019-04-14T12:07:36.568Z,90.50
2019-04-14T12:10:11.434Z,90.80
2019-04-14T12:12:42.768Z,90.60
2019-04-14T12:15:16.577Z,90.80
2019-04-14T12:17:53.436Z,90.60
2019-04-14T12:20:27.143Z,90.60
2019-04-14T12:23:08.446Z,91.50
2019-04-14T12:25:48.465Z,91.80
2019-04-14T12:28:21.934Z,92.10
2019-04-14T12:30:55.658Z,92.00
2019-04-14T12:33:25.706Z,92.50
2019-04-14T12:36:03.442Z,92.10
2019-04-14T12:38:36.792Z,92.20
2019-04-14T12:41:12.579Z,92.00
2019-04-14T12:44:06.298Z,92.30
2019-04-14T12:46:50.038Z,92.50
2019-04-14T12:49:29.447Z,91.70
2019-04-14T12:52:20.182Z,92.20
2019-04-14T12:54:43.639Z,92.30
2019-04-14T12:57:22.978Z,92.30
2019-04-14T12:59:58.943Z,92.80
2019-04-14T13:02:37.458Z,93.40
2019-04-14T13:05:18.446Z,93.10
2019-04-14T13:07:56.456Z,93.00
2019-04-14T13:10:27.571Z,93.10
2019-04-14T13:13:10.448Z,93.50
2019-04-14T13:15:46.253Z,93.80
2019-04-14T13:18:25.575Z,93.70
2019-04-14T13:21:02.466Z,93.00
2019-04-14T13:23:36.245Z,93.50
2019-04-14T13:26:10.271Z,93.50
2019-04-14T13:28:49.078Z,93.60
2019-04-14T13:31:20.754Z,92.90
2019-04-14T13:33:55.008Z,93.10
2019-04-14T13:36:34.462Z,93.60
2019-04-14T13:39:09.134Z,93.00
2019-04-14T13:41:47.463Z,93.00
2019-04-14T13:44:29.468Z,92.90
2019-04-14T13:47:08.471Z,92.10
2019-04-14T13:49:44.097Z,93.30
2019-04-14T13:52:15.347Z,93.80
2019-04-14T13:54:53.452Z,93.70
2019-04-14T13:57:33.406Z,93.60
2019-04-14T14:00:04.859Z,93.70
2019-04-14T14:02:41.423Z,94.30
2019-04-14T14:05:18.477Z,93.70
2019-04-14T14:07:58.475Z,94.00
2019-04-14T14:10:36.360Z,94.10
2019-04-14T14:13:22.476Z,94.50
2019-04-14T14:16:16.136Z,94.40
2019-04-14T14:19:04.464Z,94.40
2019-04-14T14:21:58.756Z,94.50
2019-04-14T14:24:41.352Z,94.20
2019-04-14T14:27:19.480Z,94.10
2019-04-14T14:29:57.498Z,94.20
2019-04-14T14:32:38.477Z,94.40
2019-04-14T14:35:15.477Z,94.50
2019-04-14T14:37:50.965Z,94.00
2019-04-14T14:40:24.273Z,93.90
2019-04-14T14:43:00.987Z,94.20
2019-04-14T14:45:43.642Z,94.50
2019-04-14T14:48:34.501Z,94.20
2019-04-14T14:51:13.487Z,94.50
2019-04-14T14:53:50.499Z,94.60
2019-04-14T14:56:25.694Z,94.30
2019-04-14T14:59:02.392Z,93.90
2019-04-14T15:01:34.020Z,93.90
2019-04-14T15:04:09.260Z,93.80
2019-04-14T15:06:40.206Z,94.00
2019-04-14T15:09:19.497Z,94.20
2019-04-14T15:11:54.257Z,94.20
2019-04-14T15:14:32.257Z,94.00
2019-04-14T15:17:08.572Z,94.20
2019-04-14T15:19:48.075Z,93.50
2019-04-14T15:22:20.956Z,93.50
2019-04-14T15:24:58.556Z,93.20
2019-04-14T15:27:29.889Z,93.20
2019-04-14T15:30:04.499Z,93.20
2019-04-14T15:32:38.022Z,93.50
2019-04-14T15:35:14.502Z,93.60
2019-04-14T15:37:54.507Z,93.20
2019-04-14T15:40:26.921Z,93.70
2019-04-14T15:43:08.289Z,94.00
2019-04-14T15:45:47.421Z,93.90
2019-04-14T15:48:18.776Z,93.60
2019-04-14T15:50:50.219Z,94.10
2019-04-14T15:53:36.693Z,93.30
2019-04-14T15:55:59.998Z,93.80
2019-04-14T15:58:41.174Z,93.90
2019-04-14T16:01:17.146Z,93.20
2019-04-14T16:03:55.508Z,93.70
2019-04-14T16:06:31.083Z,93.60
2019-04-14T16:09:17.164Z,94.30
2019-04-14T16:11:49.850Z,94.10
2019-04-14T16:14:31.628Z,93.90
2019-04-14T16:17:25.107Z,93.90
2019-04-14T16:20:08.521Z,94.40
2019-04-14T16:22:40.492Z,94.20
2019-04-14T16:25:12.764Z,94.30
2019-04-14T16:27:52.189Z,94.20
2019-04-14T16:30:39.119Z,94.20
2019-04-14T16:33:12.100Z,94.30
2019-04-14T16:35:48.159Z,94.30
2019-04-14T16:38:19.718Z,94.10
2019-04-14T16:40:51.364Z,94.10
2019-04-14T16:43:22.810Z,94.30
2019-04-14T16:45:57.576Z,94.50
2019-04-14T16:48:28.530Z,94.40
2019-04-14T16:50:59.891Z,94.50
2019-04-14T16:53:33.433Z,94.40
2019-04-14T16:56:04.533Z,94.50
2019-04-14T16:58:35.919Z,94.40
2019-04-14T17:01:10.535Z,95.10
2019-04-14T17:03:39.851Z,94.90
2019-04-14T17:06:13.123Z,95.20
2019-04-14T17:08:43.066Z,94.90
2019-04-14T17:11:12.861Z,95.00
2019-04-14T17:13:45.653Z,95.40
2019-04-14T17:16:17.415Z,95.20
2019-04-14T17:18:50.526Z,94.60
2019-04-14T17:21:22.573Z,94.70
2019-04-14T17:23:55.851Z,94.60
2019-04-14T17:26:43.878Z,94.60
2019-04-14T17:29:20.975Z,94.60
2019-04-14T17:31:59.718Z,95.00
2019-04-14T17:34:33.726Z,94.50
2019-04-14T17:37:11.315Z,94.40
2019-04-14T17:39:51.754Z,94.60
2019-04-14T17:42:23.409Z,94.50
2019-04-14T17:45:03.362Z,94.60
2019-04-14T17:47:43.416Z,94.80
2019-04-14T17:50:20.496Z,94.60
2019-04-14T17:53:08.354Z,94.50
2019-04-14T17:55:49.710Z,94.80
2019-04-14T17:58:16.145Z,94.90
2019-04-14T18:00:49.390Z,94.70
2019-04-14T18:03:27.415Z,94.60
2019-04-14T18:06:01.109Z,94.90
2019-04-14T18:08:48.096Z,95.00
2019-04-14T18:12:26.416Z,94.70
2019-04-14T18:43:55.636Z,95.50
2019-04-14T18:46:28.672Z,94.90
2019-04-14T18:49:00.278Z,94.80
2019-04-14T18:51:32.404Z,95.10
2019-04-14T18:54:02.792Z,95.30
2019-04-14T18:56:42.171Z,95.50
2019-04-14T18:59:27.639Z,95.40
2019-04-14T19:02:00.931Z,95.20
2019-04-14T19:04:29.814Z,95.00
2019-04-14T19:06:59.740Z,94.90
2019-04-14T19:09:29.846Z,95.30
2019-04-14T19:12:06.615Z,95.20
2019-04-14T19:14:36.998Z,95.40
2019-04-14T19:17:08.434Z,95.70
2019-04-14T19:19:41.874Z,95.70
2019-04-14T19:22:12.394Z,95.40
2019-04-14T19:24:41.179Z,95.20
2019-04-14T19:27:10.101Z,95.20
2019-04-14T19:29:39.100Z,95.20
2019-04-14T19:32:08.059Z,95.20
2019-04-14T19:34:38.418Z,95.40
2019-04-14T19:37:07.195Z,95.40
2019-04-14T19:39:36.085Z,95.40
2019-04-14T19:42:05.090Z,95.50
2019-04-14T19:44:33.848Z,95.70
2019-04-14T19:47:02.612Z,95.50
2019-04-14T19:49:33.070Z,96.10
2019-04-14T19:52:02.312Z,96.30
2019-04-14T19:54:31.188Z,96.20
2019-04-14T19:57:01.848Z,95.90
2019-04-14T19:59:30.027Z,96.10
2019-04-14T20:01:58.988Z,95.90
2019-04-14T20:04:30.248Z,96.00
2019-04-14T20:06:59.404Z,95.80
2019-04-14T20:09:30.917Z,95.80
2019-04-14T20:12:00.485Z,96.10
2019-04-14T20:14:32.737Z,96.50
2019-04-14T20:17:06.331Z,96.20
2019-04-14T20:19:41.268Z,95.90
2019-04-14T20:22:20.510Z,95.80
2019-04-14T20:24:56.932Z,95.80
2019-04-14T20:27:33.449Z,95.60
2019-04-14T20:30:09.697Z,95.60
2019-04-14T20:32:42.929Z,95.60
2019-04-14T20:35:12.028Z,95.60
2019-04-14T20:37:40.853Z,95.50
2019-04-14T20:40:09.829Z,95.40
2019-04-14T20:42:38.834Z,95.30
2019-04-14T20:45:10.288Z,95.20
2019-04-14T20:47:39.265Z,94.80
2019-04-14T20:50:09.210Z,94.80
2019-04-14T20:52:42.277Z,94.70
2019-04-14T20:55:11.250Z,94.60
2019-04-14T20:57:41.430Z,94.50
2019-04-14T21:00:10.413Z,94.40
2019-04-14T21:02:40.836Z,94.20
2019-04-14T21:05:29.008Z,94.40
2019-04-14T21:08:25.833Z,94.60
2019-04-14T21:11:00.233Z,94.50
2019-04-14T21:13:42.437Z,95.10
2019-04-14T21:16:15.635Z,94.90
2019-04-14T21:18:46.034Z,94.80
2019-04-14T21:21:32.053Z,94.80
2019-04-14T21:24:20.372Z,94.90
2019-04-14T21:26:53.509Z,95.10
2019-04-14T21:29:41.335Z,94.80
2019-04-14T21:32:29.658Z,94.70
2019-04-14T21:35:13.554Z,94.40
2019-04-14T21:37:47.314Z,94.40
2019-04-14T21:40:21.389Z,94.70
2019-04-14T21:42:50.529Z,94.90
2019-04-14T21:45:19.308Z,94.90
2019-04-14T21:47:48.233Z,94.80
2019-04-14T21:50:17.148Z,94.70
2019-04-14T21:52:49.960Z,94.70
2019-04-14T21:55:20.570Z,94.80
2019-04-14T21:57:51.043Z,95.00
2019-04-14T22:00:37.549Z,94.60
2019-04-14T22:03:20.033Z,95.20
2019-04-14T22:05:50.623Z,95.80
2019-04-14T22:08:25.295Z,96.30
2019-04-14T22:11:04.855Z,96.00
2019-04-14T22:13:33.727Z,95.80
2019-04-14T22:16:04.469Z,96.00
2019-04-14T22:18:32.587Z,96.20
2019-04-14T22:21:02.297Z,96.20
2019-04-14T22:23:33.614Z,95.80
2019-04-14T22:26:04.114Z,95.50
2019-04-14T22:28:33.169Z,95.70
2019-04-14T22:31:03.371Z,95.40
2019-04-14T22:33:32.147Z,95.10
2019-04-14T22:36:00.987Z,95.20
2019-04-14T22:38:31.618Z,95.60
2019-04-14T22:40:59.613Z,95.50
2019-04-14T22:43:28.408Z,95.40
2019-04-14T22:45:58.814Z,95.70
2019-04-14T22:48:27.674Z,95.40
2019-04-14T22:50:59.402Z,95.20
2019-04-14T22:53:28.235Z,95.40
2019-04-14T22:55:57.045Z,95.40
2019-04-14T22:58:27.476Z,95.50
2019-04-14T23:00:57.876Z,95.60
2019-04-14T23:03:35.494Z,95.80
2019-04-14T23:06:06.008Z,95.70
2019-04-14T23:08:49.029Z,95.50
2019-04-14T23:11:35.713Z,95.50
2019-04-14T23:14:21.310Z,95.30
2019-04-14T23:16:51.697Z,95.10
2019-04-14T23:19:29.668Z,95.50
2019-04-14T23:22:00.110Z,95.10
2019-04-14T23:24:33.135Z,95.10
2019-04-14T23:27:06.293Z,95.10
2019-04-14T23:29:38.474Z,94.90
2019-04-14T23:32:07.520Z,95.20
2019-04-14T23:34:39.440Z,95.30
2019-04-14T23:37:09.703Z,95.20
2019-04-14T23:39:39.640Z,95.40
2019-04-14T23:42:10.420Z,95.60
2019-04-14T23:44:43.627Z,95.50
2019-04-14T23:47:14.119Z,95.30
2019-04-14T23:49:43.720Z,95.50
2019-04-14T23:52:13.659Z,95.50
2019-04-14T23:54:48.220Z,95.80
2019-04-14T23:57:15.999Z,95.60
2019-04-14T23:59:44.803Z,94.80
